createdAt,value
2023-03-30T00:01:18.888Z,21.37
2023-03-30T00:03:50.059Z,22.70
2023-03-30T00:06:23.455Z,22.10
2023-03-30T00:09:00.647Z,20.97
2023-03-30T00:11:34.112Z,22.83
2023-03-30T00:14:02.344Z,22.47
2023-03-30T00:16:31.765Z,22.03
2023-03-30T00:18:58.901Z,21.50
2023-03-30T00:21:28.287Z,23.60
2023-03-30T00:23:57.378Z,23.57
2023-03-30T00:26:24.666Z,22.73
2023-03-30T00:28:52.492Z,23.73
2023-03-30T00:31:20.512Z,23.50
2023-03-30T00:33:47.986Z,23.53
2023-03-30T00:36:16.578Z,23.70
2023-03-30T00:38:48.434Z,23.20
2023-03-30T00:41:18.338Z,23.20
2023-03-30T00:44:51.917Z,22.97
2023-03-30T00:47:19.819Z,21.60
2023-03-30T00:49:47.488Z,22.47
2023-03-30T00:52:19.321Z,21.97
2023-03-30T00:54:47.605Z,22.90
2023-03-30T00:57:17.670Z,21.97
2023-03-30T00:59:45.289Z,22.70
2023-03-30T01:02:15.462Z,22.63
2023-03-30T01:04:45.835Z,23.93
2023-03-30T01:07:13.645Z,21.40
2023-03-30T01:09:42.961Z,22.53
2023-03-30T01:12:11.228Z,22.77
2023-03-30T01:14:42.299Z,22.23
2023-03-30T01:17:33.098Z,22.70
2023-03-30T01:20:20.896Z,20.90
2023-03-30T01:23:13.580Z,23.03
2023-03-30T01:26:11.561Z,20.90
2023-03-30T01:29:00.539Z,21.67
2023-03-30T01:32:03.240Z,22.77
2023-03-30T01:34:48.250Z,20.90
2023-03-30T01:37:37.374Z,21.87
2023-03-30T01:40:13.201Z,23.77
2023-03-30T01:42:57.974Z,22.43
2023-03-30T01:45:45.700Z,23.10
2023-03-30T01:48:39.444Z,21.50
2023-03-30T01:51:13.140Z,22.37
2023-03-30T01:54:08.410Z,22.30
2023-03-30T01:56:57.127Z,22.30
2023-03-30T01:59:37.551Z,22.27
2023-03-30T02:02:07.247Z,21.80
2023-03-30T02:04:42.132Z,24.00
2023-03-30T02:07:24.192Z,23.80
2023-03-30T02:09:55.045Z,23.53
2023-03-30T02:12:23.844Z,23.00
2023-03-30T02:14:52.913Z,21.90
2023-03-30T02:17:27.236Z,23.20
2023-03-30T02:20:00.425Z,24.03
2023-03-30T02:22:30.630Z,23.90
2023-03-30T02:24:58.574Z,24.03
2023-03-30T02:27:27.748Z,23.57
2023-03-30T02:29:57.029Z,25.07
2023-03-30T02:32:37.148Z,23.70
2023-03-30T02:35:26.770Z,24.10
2023-03-30T02:38:35.561Z,22.90
2023-03-30T02:41:31.232Z,21.73
2023-03-30T02:44:22.458Z,23.10
2023-03-30T02:47:00.450Z,23.30
2023-03-30T02:49:43.581Z,23.00
2023-03-30T02:52:57.526Z,23.33
2023-03-30T02:55:51.388Z,21.60
2023-03-30T02:58:47.570Z,21.20
2023-03-30T03:01:47.899Z,21.27
2023-03-30T03:04:15.689Z,19.30
2023-03-30T03:06:43.294Z,20.50
2023-03-30T03:09:10.262Z,21.10
2023-03-30T03:11:37.229Z,20.17
2023-03-30T03:14:04.382Z,20.37
2023-03-30T03:16:34.675Z,20.47
2023-03-30T03:19:04.512Z,18.83
2023-03-30T03:21:31.359Z,18.97
2023-03-30T03:23:58.540Z,18.47
2023-03-30T03:26:27.071Z,18.13
2023-03-30T03:28:54.197Z,19.47
2023-03-30T03:31:22.156Z,17.80
2023-03-30T03:33:50.616Z,18.67
2023-03-30T03:36:25.135Z,18.40
2023-03-30T03:38:52.461Z,18.10
2023-03-30T03:41:22.046Z,16.33
2023-03-30T03:43:53.702Z,18.33
2023-03-30T03:46:21.128Z,18.43
2023-03-30T03:48:50.260Z,18.37
2023-03-30T03:51:17.368Z,17.60
2023-03-30T03:53:44.312Z,16.73
2023-03-30T03:56:14.906Z,17.10
2023-03-30T03:58:46.604Z,17.57
2023-03-30T04:01:14.611Z,18.37
2023-03-30T04:03:44.293Z,17.60
2023-03-30T04:06:14.117Z,18.83
2023-03-30T04:08:46.204Z,17.83
2023-03-30T04:11:17.717Z,17.90
2023-03-30T04:13:48.197Z,18.27
2023-03-30T04:16:15.570Z,17.40
2023-03-30T04:18:43.842Z,19.00
2023-03-30T04:21:13.244Z,17.57
2023-03-30T04:23:45.602Z,17.60
2023-03-30T04:26:15.881Z,17.13
2023-03-30T04:28:43.109Z,17.90
2023-03-30T04:31:11.003Z,19.30
2023-03-30T04:33:52.080Z,18.97
2023-03-30T04:36:20.774Z,18.07
2023-03-30T04:39:00.557Z,18.50
2023-03-30T04:41:33.250Z,18.03
2023-03-30T04:44:07.373Z,19.10
2023-03-30T04:46:34.389Z,19.33
2023-03-30T04:49:01.833Z,19.37
2023-03-30T04:51:31.833Z,18.70
2023-03-30T04:53:58.809Z,19.70
2023-03-30T04:56:28.167Z,17.47
2023-03-30T04:58:56.103Z,18.40
2023-03-30T05:01:23.175Z,18.77
2023-03-30T05:03:50.297Z,18.80
2023-03-30T05:06:19.692Z,18.43
2023-03-30T05:08:48.940Z,17.30
2023-03-30T05:11:16.069Z,18.30
2023-03-30T05:13:43.128Z,17.93
2023-03-30T05:16:10.495Z,18.37
2023-03-30T05:18:39.701Z,18.13
2023-03-30T05:21:07.138Z,18.07
2023-03-30T05:23:34.093Z,17.10
2023-03-30T05:26:04.714Z,16.60
2023-03-30T05:28:32.591Z,16.70
2023-03-30T05:31:00.226Z,16.17
2023-03-30T05:33:30.220Z,14.33
2023-03-30T05:35:57.328Z,15.53
2023-03-30T05:38:24.356Z,15.30
2023-03-30T05:40:55.014Z,15.47
2023-03-30T05:43:22.282Z,13.90
2023-03-30T05:45:49.196Z,14.80
2023-03-30T05:48:18.820Z,14.40
2023-03-30T05:50:48.643Z,14.40
2023-03-30T05:53:16.243Z,13.33
2023-03-30T05:55:48.548Z,13.50
2023-03-30T05:58:16.956Z,12.53
2023-03-30T06:00:45.188Z,12.47
2023-03-30T06:03:12.752Z,11.57
2023-03-30T06:05:43.863Z,11.90
2023-03-30T06:08:12.063Z,11.87
2023-03-30T06:10:39.378Z,9.83
2023-03-30T06:13:09.206Z,10.60
2023-03-30T06:15:38.330Z,10.53
2023-03-30T06:18:09.956Z,10.00
2023-03-30T06:20:39.229Z,9.13
2023-03-30T06:23:06.298Z,9.33
2023-03-30T06:25:33.859Z,9.07
2023-03-30T06:28:03.371Z,9.17
2023-03-30T06:30:30.490Z,8.90
2023-03-30T06:32:57.496Z,9.10
2023-03-30T06:35:27.328Z,8.17
2023-03-30T06:37:54.293Z,9.20
2023-03-30T06:40:23.910Z,7.93
2023-03-30T06:42:53.230Z,8.93
2023-03-30T06:45:23.450Z,8.10
2023-03-30T06:47:50.441Z,7.73
2023-03-30T06:50:17.613Z,8.47
2023-03-30T06:52:44.593Z,7.07
2023-03-30T06:55:17.155Z,6.80
2023-03-30T06:57:44.121Z,7.37
2023-03-30T07:00:15.319Z,6.43
2023-03-30T07:02:43.385Z,6.97
2023-03-30T07:05:11.877Z,5.90
2023-03-30T07:07:41.382Z,6.13
2023-03-30T07:10:12.022Z,5.80
2023-03-30T07:12:40.932Z,7.20
2023-03-30T07:15:09.142Z,5.77
2023-03-30T07:17:37.191Z,6.33
2023-03-30T07:20:06.121Z,7.00
2023-03-30T07:22:33.237Z,5.70
2023-03-30T07:25:00.203Z,6.60
2023-03-30T07:27:27.470Z,5.80
2023-03-30T07:29:55.086Z,5.67
2023-03-30T07:32:22.782Z,5.57
2023-03-30T07:34:49.913Z,4.53
2023-03-30T07:37:20.629Z,4.90
2023-03-30T07:39:48.821Z,5.43
2023-03-30T07:42:16.043Z,5.10
2023-03-30T07:44:45.825Z,5.10
2023-03-30T07:47:12.892Z,5.37
2023-03-30T07:49:44.730Z,5.27
2023-03-30T07:52:12.016Z,4.53
2023-03-30T07:54:39.389Z,5.80
2023-03-30T07:57:06.397Z,4.90
2023-03-30T07:59:36.065Z,5.47
2023-03-30T08:02:04.627Z,5.23
2023-03-30T08:04:31.925Z,5.40
2023-03-30T08:07:01.601Z,5.03
2023-03-30T08:09:28.609Z,4.97
2023-03-30T08:11:58.274Z,5.83
2023-03-30T08:14:27.408Z,5.90
2023-03-30T08:16:55.289Z,4.57
2023-03-30T08:19:27.125Z,5.27
2023-03-30T08:21:57.050Z,5.07
2023-03-30T08:24:24.447Z,5.50
2023-03-30T08:26:53.540Z,5.47
2023-03-30T08:29:21.185Z,5.97
2023-03-30T08:31:48.316Z,5.50
2023-03-30T08:34:15.364Z,4.87
2023-03-30T08:36:42.813Z,4.80
2023-03-30T08:39:10.936Z,4.60
2023-03-30T08:42:08.378Z,5.07
2023-03-30T08:44:43.541Z,5.67
2023-03-30T08:47:18.198Z,5.57
2023-03-30T08:49:58.858Z,5.00
2023-03-30T08:52:30.931Z,5.60
2023-03-30T08:55:01.493Z,5.70
2023-03-30T08:57:51.301Z,4.87
2023-03-30T09:00:30.912Z,4.83
2023-03-30T09:03:46.251Z,5.60
2023-03-30T09:06:40.615Z,5.70
2023-03-30T09:09:15.251Z,4.90
2023-03-30T09:11:43.094Z,5.10
2023-03-30T09:14:42.550Z,5.13
2023-03-30T09:17:18.279Z,4.77
2023-03-30T09:19:51.684Z,4.67
2023-03-30T09:22:20.365Z,4.77
2023-03-30T09:24:52.724Z,4.40
2023-03-30T09:27:45.753Z,4.97
2023-03-30T09:30:34.941Z,4.93
2023-03-30T09:33:28.197Z,4.10
2023-03-30T09:36:19.322Z,3.90
2023-03-30T09:38:50.395Z,3.73
2023-03-30T09:41:46.071Z,3.50
2023-03-30T09:44:38.455Z,3.90
2023-03-30T09:47:39.024Z,3.00
2023-03-30T09:50:26.761Z,3.43
2023-03-30T09:53:02.135Z,3.37
2023-03-30T09:55:32.885Z,3.00
2023-03-30T09:58:15.523Z,2.90
2023-03-30T10:00:42.462Z,3.20
2023-03-30T10:03:21.882Z,3.27
2023-03-30T10:06:13.407Z,2.80
2023-03-30T10:08:58.754Z,3.20
2023-03-30T10:11:31.770Z,3.20
2023-03-30T10:13:59.644Z,2.97
2023-03-30T10:16:34.358Z,2.73
2023-03-30T10:19:18.987Z,3.30
2023-03-30T10:21:46.974Z,3.60
2023-03-30T10:24:32.166Z,2.93
2023-03-30T10:27:13.710Z,3.27
2023-03-30T10:29:46.900Z,4.17
2023-03-30T10:32:31.768Z,3.63
2023-03-30T10:35:02.147Z,2.63
2023-03-30T10:37:44.964Z,3.33
2023-03-30T10:40:21.054Z,2.60
2023-03-30T10:42:55.636Z,3.20
2023-03-30T10:45:33.297Z,2.93
2023-03-30T10:48:34.301Z,2.90
2023-03-30T10:52:21.752Z,3.13
2023-03-30T10:55:17.043Z,2.63
2023-03-30T10:57:54.578Z,2.97
2023-03-30T11:00:28.863Z,2.70
2023-03-30T11:03:44.820Z,2.30
2023-03-30T11:06:26.423Z,2.43
2023-03-30T11:08:57.855Z,3.00
2023-03-30T11:11:40.649Z,2.60
2023-03-30T11:15:02.202Z,2.00
2023-03-30T11:17:29.948Z,2.00
2023-03-30T11:20:06.011Z,2.50
2023-03-30T11:22:47.591Z,3.03
2023-03-30T11:25:59.200Z,2.43
2023-03-30T11:28:54.729Z,2.43
2023-03-30T11:31:47.505Z,2.00
2023-03-30T11:34:49.601Z,1.87
2023-03-30T11:37:32.232Z,2.30
2023-03-30T11:40:28.580Z,1.90
2023-03-30T11:42:58.500Z,1.93
2023-03-30T11:45:37.837Z,2.00
2023-03-30T11:48:33.837Z,2.00
2023-03-30T11:51:04.010Z,1.77
2023-03-30T11:53:56.651Z,2.50
2023-03-30T11:56:53.166Z,1.60
2023-03-30T12:00:03.736Z,1.70
2023-03-30T12:03:02.124Z,1.90
2023-03-30T12:05:43.295Z,2.40
2023-03-30T12:08:25.516Z,2.00
2023-03-30T12:11:04.223Z,2.10
2023-03-30T12:13:44.502Z,1.67
2023-03-30T12:16:37.987Z,1.90
2023-03-30T12:19:22.397Z,1.60
2023-03-30T12:22:01.466Z,1.37
2023-03-30T12:24:46.528Z,1.67
2023-03-30T12:27:13.700Z,2.60
2023-03-30T12:30:02.619Z,1.73
2023-03-30T12:32:31.678Z,1.90
2023-03-30T12:34:58.905Z,2.40
2023-03-30T12:37:37.701Z,1.77
2023-03-30T12:40:22.100Z,2.27
2023-03-30T12:43:19.457Z,2.03
2023-03-30T12:46:42.858Z,1.60
2023-03-30T12:49:28.198Z,2.63
2023-03-30T12:52:13.750Z,2.90
2023-03-30T12:54:50.285Z,2.53
2023-03-30T12:57:54.075Z,1.63
2023-03-30T13:01:09.656Z,2.30
2023-03-30T13:03:59.003Z,2.70
2023-03-30T13:07:18.140Z,3.47
2023-03-30T13:09:56.218Z,3.13
2023-03-30T13:12:40.323Z,2.20
2023-03-30T13:15:16.235Z,2.20
2023-03-30T13:18:32.087Z,3.20
2023-03-30T13:21:19.260Z,2.97
2023-03-30T13:24:02.281Z,2.87
2023-03-30T13:26:43.482Z,3.00
2023-03-30T13:29:18.765Z,2.90
2023-03-30T13:32:20.126Z,3.30
2023-03-30T13:35:27.950Z,3.20
2023-03-30T13:38:44.195Z,2.90
2023-03-30T13:41:26.408Z,2.33
2023-03-30T13:44:41.338Z,2.90
2023-03-30T13:47:29.778Z,2.37
2023-03-30T13:50:11.873Z,2.53
2023-03-30T13:52:47.397Z,3.13
2023-03-30T13:55:39.993Z,2.80
2023-03-30T13:58:22.274Z,3.27
2023-03-30T14:01:03.082Z,2.83
2023-03-30T14:03:41.679Z,2.90
2023-03-30T14:06:17.643Z,2.43
2023-03-30T14:08:48.452Z,3.50
2023-03-30T14:11:24.404Z,3.80
2023-03-30T14:13:53.862Z,2.60
2023-03-30T14:16:27.920Z,2.83
2023-03-30T14:19:33.730Z,3.47
2023-03-30T14:22:14.109Z,3.40
2023-03-30T14:25:04.846Z,2.90
2023-03-30T14:27:41.298Z,2.70
2023-03-30T14:30:31.763Z,3.97
2023-03-30T14:33:11.741Z,3.77
2023-03-30T14:35:43.898Z,3.00
2023-03-30T14:38:26.721Z,2.80
2023-03-30T14:40:55.294Z,2.80
2023-03-30T14:43:30.868Z,6.63
2023-03-30T14:46:06.143Z,2.80
2023-03-30T14:48:42.231Z,3.40
2023-03-30T14:51:28.853Z,3.20
2023-03-30T14:53:58.714Z,2.03
2023-03-30T14:56:28.074Z,2.50
2023-03-30T14:58:58.740Z,2.77
2023-03-30T15:01:34.994Z,2.67
2023-03-30T15:04:15.836Z,2.50
2023-03-30T15:06:46.050Z,2.33
2023-03-30T15:09:23.158Z,2.43
2023-03-30T15:12:02.316Z,2.20
2023-03-30T15:14:38.353Z,3.13
2023-03-30T15:17:22.804Z,2.70
2023-03-30T15:19:54.161Z,2.23
2023-03-30T15:22:41.674Z,2.40
2023-03-30T15:25:15.529Z,2.20
2023-03-30T15:28:11.720Z,2.50
2023-03-30T15:30:43.828Z,2.20
2023-03-30T15:33:29.922Z,2.00
2023-03-30T15:36:14.205Z,1.83
2023-03-30T15:38:51.720Z,2.20
2023-03-30T15:41:43.603Z,2.10
2023-03-30T15:44:16.078Z,2.47
2023-03-30T15:46:50.439Z,2.43
2023-03-30T15:49:25.284Z,2.47
2023-03-30T15:52:17.385Z,2.30
2023-03-30T15:54:51.863Z,3.00
2023-03-30T15:57:29.054Z,2.40
2023-03-30T16:00:05.586Z,2.60
2023-03-30T16:02:32.567Z,1.90
2023-03-30T16:05:07.779Z,2.50
2023-03-30T16:07:36.289Z,3.17
2023-03-30T16:10:06.648Z,3.00
2023-03-30T16:12:34.776Z,2.30
2023-03-30T16:15:04.291Z,2.67
2023-03-30T16:17:34.891Z,3.57
2023-03-30T16:20:03.254Z,2.60
2023-03-30T16:22:31.934Z,3.57
2023-03-30T16:24:58.990Z,2.80
2023-03-30T16:27:25.983Z,3.60
2023-03-30T16:29:57.693Z,3.33
2023-03-30T16:32:32.139Z,3.20
2023-03-30T16:35:02.753Z,3.27
2023-03-30T16:37:31.687Z,2.70
2023-03-30T16:39:58.823Z,2.57
2023-03-30T16:42:27.490Z,2.60
2023-03-30T16:44:54.676Z,2.97
2023-03-30T16:47:21.793Z,2.57
2023-03-30T16:49:51.790Z,2.53
2023-03-30T16:52:18.770Z,2.80
2023-03-30T16:54:45.742Z,2.90
2023-03-30T16:57:15.770Z,2.27
2023-03-30T16:59:43.153Z,2.63
2023-03-30T17:02:16.324Z,2.50
2023-03-30T17:04:49.875Z,2.67
2023-03-30T17:07:16.827Z,3.60
2023-03-30T17:09:43.766Z,2.47
2023-03-30T17:12:13.173Z,2.43
2023-03-30T17:14:42.946Z,2.33
2023-03-30T17:17:10.079Z,2.20
2023-03-30T17:19:36.988Z,2.37
2023-03-30T17:22:06.390Z,2.97
2023-03-30T17:24:33.330Z,2.90
2023-03-30T17:27:01.330Z,2.93
2023-03-30T17:29:28.174Z,2.90
2023-03-30T17:31:57.400Z,3.47
2023-03-30T17:34:24.566Z,2.80
2023-03-30T17:36:51.532Z,3.00
2023-03-30T17:39:21.091Z,2.43
2023-03-30T17:41:48.081Z,3.23
2023-03-30T17:44:17.279Z,2.80
2023-03-30T17:46:44.375Z,2.77
2023-03-30T17:49:17.258Z,2.87
2023-03-30T17:51:44.411Z,2.40
2023-03-30T17:54:11.393Z,3.27
2023-03-30T17:56:38.387Z,3.30
2023-03-30T17:59:13.085Z,3.20
2023-03-30T18:01:40.214Z,3.10
2023-03-30T18:04:09.658Z,3.90
2023-03-30T18:06:36.879Z,3.30
2023-03-30T18:09:16.496Z,3.97
2023-03-30T18:11:48.126Z,3.83
2023-03-30T18:14:15.332Z,3.87
2023-03-30T18:16:45.966Z,3.97
2023-03-30T18:19:17.536Z,4.13
2023-03-30T18:21:44.734Z,3.57
2023-03-30T18:24:15.303Z,3.90
2023-03-30T18:26:43.628Z,3.90
2023-03-30T18:29:21.991Z,3.63
2023-03-30T18:31:51.924Z,2.53
2023-03-30T18:34:23.413Z,3.40
2023-03-30T18:36:52.721Z,3.20
2023-03-30T18:39:20.178Z,4.57
2023-03-30T18:41:50.048Z,4.03
2023-03-30T18:44:21.826Z,3.60
2023-03-30T18:46:51.925Z,3.83
2023-03-30T18:49:22.542Z,3.80
2023-03-30T18:51:52.614Z,3.30
2023-03-30T18:54:19.943Z,3.57
2023-03-30T18:56:48.078Z,3.83
2023-03-30T18:59:15.311Z,3.47
2023-03-30T19:01:45.935Z,2.90
2023-03-30T19:04:15.738Z,3.77
2023-03-30T19:06:44.510Z,3.20
2023-03-30T19:09:11.850Z,4.10
2023-03-30T19:11:41.410Z,3.20
2023-03-30T19:14:12.166Z,3.03
2023-03-30T19:16:44.185Z,3.07
2023-03-30T19:19:14.895Z,3.67
2023-03-30T19:21:43.157Z,3.23
2023-03-30T19:24:14.052Z,4.43
2023-03-30T19:26:41.445Z,3.23
2023-03-30T19:29:08.335Z,3.67
2023-03-30T19:31:36.621Z,3.10
2023-03-30T19:34:03.694Z,2.97
2023-03-30T19:36:33.256Z,2.50
2023-03-30T19:39:02.614Z,2.67
2023-03-30T19:41:31.704Z,4.00
2023-03-30T19:44:02.074Z,3.13
2023-03-30T19:46:31.560Z,2.70
2023-03-30T19:49:03.240Z,2.83
2023-03-30T19:51:34.766Z,3.00
2023-03-30T19:54:01.804Z,3.17
2023-03-30T19:56:31.891Z,3.13
2023-03-30T19:59:01.556Z,2.77
2023-03-30T20:01:28.833Z,3.43
2023-03-30T20:03:56.287Z,3.30
2023-03-30T20:06:23.370Z,3.20
2023-03-30T20:08:50.594Z,2.53
2023-03-30T20:11:17.879Z,3.40
2023-03-30T20:13:49.142Z,3.10
2023-03-30T20:16:23.102Z,3.30
2023-03-30T20:18:54.572Z,2.87
2023-03-30T20:21:24.235Z,3.17
2023-03-30T20:23:51.634Z,3.73
2023-03-30T20:26:19.407Z,3.93
2023-03-30T20:28:47.339Z,3.57
2023-03-30T20:31:15.425Z,3.60
2023-03-30T20:33:42.923Z,3.83
2023-03-30T20:36:10.658Z,3.93
2023-03-30T20:38:39.631Z,4.37
2023-03-30T20:41:07.841Z,3.50
2023-03-30T20:46:16.533Z,4.10
2023-03-30T20:48:54.205Z,4.10
2023-03-30T20:51:23.585Z,3.67
2023-03-30T20:53:54.398Z,4.13
2023-03-30T20:56:22.020Z,3.27
2023-03-30T20:58:49.501Z,4.10
2023-03-30T21:01:25.561Z,4.70
2023-03-30T21:03:59.798Z,3.90
2023-03-30T21:06:31.304Z,3.80
2023-03-30T21:09:02.765Z,4.37
2023-03-30T21:11:33.594Z,3.70
2023-03-30T21:14:03.601Z,3.40
2023-03-30T21:16:30.978Z,3.60
2023-03-30T21:18:58.222Z,3.80
2023-03-30T21:21:25.295Z,3.50
2023-03-30T21:23:52.413Z,4.37
2023-03-30T21:26:21.778Z,3.10
2023-03-30T21:28:51.231Z,3.37
2023-03-30T21:31:22.905Z,2.23
2023-03-30T21:33:50.317Z,3.57
2023-03-30T21:36:17.570Z,2.30
2023-03-30T21:38:44.705Z,2.67
2023-03-30T21:41:18.347Z,2.40
2023-03-30T21:43:47.919Z,2.60
2023-03-30T21:46:19.547Z,1.90
2023-03-30T21:48:49.060Z,2.40
2023-03-30T21:51:24.540Z,1.63
2023-03-30T21:53:53.322Z,1.83
2023-03-30T21:56:23.493Z,2.70
2023-03-30T21:58:51.132Z,2.87
2023-03-30T22:01:23.719Z,3.30
2023-03-30T22:03:53.661Z,4.10
2023-03-30T22:06:24.016Z,3.30
2023-03-30T22:08:50.979Z,4.07
2023-03-30T22:11:25.169Z,4.00
2023-03-30T22:13:55.759Z,5.00
2023-03-30T22:16:32.218Z,4.80
2023-03-30T22:19:05.040Z,5.53
2023-03-30T22:21:35.692Z,4.73
2023-03-30T22:24:07.836Z,5.60
2023-03-30T22:26:38.660Z,4.90
2023-03-30T22:29:06.053Z,6.50
2023-03-30T22:31:33.706Z,5.80
2023-03-30T22:34:03.892Z,5.10
2023-03-30T22:36:31.561Z,5.70
2023-03-30T22:39:01.213Z,5.70
2023-03-30T22:41:28.558Z,6.10
2023-03-30T22:43:58.330Z,5.50
2023-03-30T22:46:28.253Z,5.57
2023-03-30T22:48:58.680Z,5.80
2023-03-30T22:51:34.244Z,5.17
2023-03-30T22:54:05.118Z,5.10
2023-03-30T22:56:32.089Z,4.87
2023-03-30T22:59:01.062Z,5.20
2023-03-30T23:01:32.535Z,5.30
2023-03-30T23:04:05.874Z,5.10
2023-03-30T23:06:36.727Z,5.00
2023-03-30T23:09:04.720Z,5.37
2023-03-30T23:11:34.945Z,5.00
2023-03-30T23:14:07.188Z,5.07
2023-03-30T23:16:39.991Z,4.43
2023-03-30T23:19:07.772Z,5.50
2023-03-30T23:21:34.810Z,5.87
2023-03-30T23:24:08.091Z,5.10
2023-03-30T23:26:35.567Z,4.90
2023-03-30T23:29:03.801Z,5.00
2023-03-30T23:31:34.561Z,5.20
2023-03-30T23:34:01.829Z,4.87
2023-03-30T23:36:28.860Z,4.97
2023-03-30T23:38:56.004Z,5.73
2023-03-30T23:41:24.302Z,4.80
2023-03-30T23:43:51.637Z,5.90
2023-03-30T23:46:19.910Z,5.53
2023-03-30T23:48:50.090Z,5.90
2023-03-30T23:51:17.188Z,5.40
2023-03-30T23:53:47.213Z,5.50
2023-03-30T23:56:17.376Z,6.37
2023-03-30T23:58:47.267Z,4.13
